Time;durP1;ratioP1;P1;durP2;ratioP2;P2;SDS_P1;SDS_P2;PMS_P1;PMS_P2;Temp;Humidity;BMP_temperature;BMP_pressure;BME280_temperature;BME280_humidity;BME280_pressure;Samples;Min_cycle;Max_cycle;Signal;HPM_P1;HPM_P2
2022/12/07 07:06:47;;;;;;;7.25;5.82;;;;;;;3.81;100.00;101544.41;5321370;27;20347;-75
2022/12/07 07:09:18;;;;;;;9.88;5.78;;;;;;;3.78;100.00;101555.81;5315272;28;20094;-75
2022/12/07 07:11:49;;;;;;;7.57;5.32;;;;;;;3.81;100.00;101549.91;5316525;28;20027;-74
2022/12/07 07:14:21;;;;;;;13.75;5.80;;;;;;;3.81;100.00;101560.88;5307715;28;20016;-74
2022/12/07 07:16:53;;;;;;;9.68;5.50;;;;;;;3.81;100.00;101555.38;5299383;28;20410;-75
2022/12/07 07:19:24;;;;;;;8.70;4.72;;;;;;;3.85;100.00;101550.25;5300461;28;20062;-75
2022/12/07 07:21:55;;;;;;;8.10;5.82;;;;;;;3.82;100.00;101556.22;5304025;28;20114;-75
2022/12/07 07:24:26;;;;;;;7.72;6.47;;;;;;;3.88;100.00;101556.13;5305714;28;20031;-75
2022/12/07 07:26:58;;;;;;;15.45;5.63;;;;;;;3.88;100.00;101558.03;5298549;28;20020;-75
2022/12/07 07:29:29;;;;;;;9.07;6.05;;;;;;;3.96;100.00;101562.38;5299852;28;20020;-75
2022/12/07 07:32:03;;;;;;;6.03;4.75;;;;;;;3.83;100.00;101558.72;5300662;28;20035;-74
2022/12/07 07:34:34;;;;;;;8.07;5.00;;;;;;;3.86;100.00;101563.78;5309131;28;20031;-74
2022/12/07 07:37:06;;;;;;;7.07;5.10;;;;;;;3.80;100.00;101564.66;5301830;28;20096;-74
2022/12/07 07:39:37;;;;;;;7.35;5.05;;;;;;;3.89;100.00;101562.47;5301901;28;20028;-74
2022/12/07 07:42:08;;;;;;;7.20;4.68;;;;;;;3.84;100.00;101565.91;5299224;28;20024;-74
2022/12/07 07:44:40;;;;;;;10.23;5.18;;;;;;;3.87;100.00;101562.69;5315583;28;20546;-74
2022/12/07 07:47:11;;;;;;;13.65;8.85;;;;;;;4.04;100.00;101567.56;5301824;28;20028;-76
2022/12/07 07:49:42;;;;;;;10.13;6.63;;;;;;;4.31;100.00;101563.44;5299699;28;20021;-74
2022/12/07 07:52:14;;;;;;;8.35;6.25;;;;;;;4.07;100.00;101561.66;5299471;28;20062;-75
2022/12/07 07:54:45;;;;;;;7.00;5.05;;;;;;;4.24;100.00;101570.91;5299984;28;20086;-74
2022/12/07 07:57:17;;;;;;;5.75;5.05;;;;;;;4.16;100.00;101562.16;5318215;28;20032;-74
2022/12/07 07:59:49;;;;;;;7.40;4.70;;;;;;;4.14;100.00;101560.50;5308386;28;20028;-74
2022/12/07 08:02:20;;;;;;;8.00;4.78;;;;;;;4.33;100.00;101563.22;5307491;28;20028;-75
2022/12/07 08:04:53;;;;;;;6.15;4.30;;;;;;;4.18;100.00;101566.34;5317672;28;20443;-76
2022/12/07 08:07:24;;;;;;;7.95;5.43;;;;;;;4.11;100.00;101560.09;5342494;28;20073;-76
2022/12/07 08:09:55;;;;;;;49.63;9.15;;;;;;;4.24;100.00;101575.56;5336942;28;20023;-75
2022/12/07 08:12:27;;;;;;;8.60;5.22;;;;;;;4.22;100.00;101573.06;5321659;28;20536;-75
2022/12/07 08:14:58;;;;;;;7.70;5.15;;;;;;;4.13;100.00;101574.44;5328102;28;20031;-74
2022/12/07 08:17:29;;;;;;;5.55;4.60;;;;;;;4.05;100.00;101572.84;5331207;28;20130;-75
2022/12/07 08:20:01;;;;;;;11.30;5.00;;;;;;;4.06;100.00;101573.66;5308640;28;20106;-75
2022/12/07 08:22:32;;;;;;;7.28;5.38;;;;;;;4.11;100.00;101577.41;5306907;28;20105;-75
2022/12/07 08:25:03;;;;;;;8.38;4.97;;;;;;;4.14;100.00;101578.84;5305855;28;20028;-74
2022/12/07 08:27:35;;;;;;;8.07;5.15;;;;;;;4.18;100.00;101580.09;5321578;28;20156;-74
2022/12/07 08:30:07;;;;;;;8.75;5.10;;;;;;;4.17;100.00;101585.78;5314193;28;20470;-75
2022/12/07 08:32:41;;;;;;;7.50;5.00;;;;;;;4.13;100.00;101588.16;5327020;28;20031;-76
2022/12/07 08:35:12;;;;;;;8.27;4.40;;;;;;;4.17;100.00;101597.63;5318629;28;20114;-75
2022/12/07 08:37:44;;;;;;;6.07;4.78;;;;;;;4.18;100.00;101593.81;5319185;28;20107;-75
2022/12/07 08:40:15;;;;;;;6.75;5.30;;;;;;;4.21;100.00;101596.09;5305573;28;20074;-75
2022/12/07 08:42:50;;;;;;;10.57;6.65;;;;;;;4.27;100.00;101597.06;5306130;28;20025;-75
2022/12/07 08:45:22;;;;;;;7.88;5.10;;;;;;;4.21;100.00;101598.84;5305438;28;20331;-75
2022/12/07 08:48:10;;;;;;;6.75;4.68;;;;;;;4.20;100.00;101597.16;5305934;28;20028;-75
2022/12/07 08:50:41;;;;;;;7.65;5.80;;;;;;;4.34;100.00;101597.84;5305554;28;20091;-75
2022/12/07 08:53:12;;;;;;;8.48;4.47;;;;;;;4.31;100.00;101601.88;5305870;28;20028;-75
2022/12/07 08:55:48;;;;;;;4.70;4.20;;;;;;;4.22;100.00;101595.03;5306225;28;20435;-75
2022/12/07 08:58:22;;;;;;;7.07;4.93;;;;;;;4.39;100.00;101588.91;5304880;28;20024;-75
2022/12/07 09:00:53;;;;;;;7.32;4.30;;;;;;;4.48;100.00;101584.81;5312174;28;20026;-75
2022/12/07 09:03:25;;;;;;;7.78;5.22;;;;;;;4.55;100.00;101586.38;5325584;28;20103;-75
2022/12/07 09:05:57;;;;;;;7.80;4.68;;;;;;;4.51;100.00;101581.59;5309888;28;20051;-75
2022/12/07 09:08:33;;;;;;;8.20;4.50;;;;;;;4.53;100.00;101585.78;5324734;28;20024;-75
2022/12/07 09:11:04;;;;;;;7.72;4.97;;;;;;;4.51;100.00;101578.84;5307028;28;20103;-75
2022/12/07 09:13:36;;;;;;;9.80;4.45;;;;;;;4.74;100.00;101573.44;5312357;28;20160;-75
2022/12/07 09:16:09;;;;;;;9.15;4.45;;;;;;;4.69;100.00;101576.03;5327724;28;20031;-75
2022/12/07 09:18:41;;;;;;;6.60;4.40;;;;;;;4.74;100.00;101576.19;5314245;28;20020;-79
2022/12/07 09:21:12;;;;;;;9.48;5.22;;;;;;;4.75;100.00;101580.59;5304407;28;20382;-78
2022/12/07 09:23:44;;;;;;;8.52;4.28;;;;;;;4.81;100.00;101581.59;5305826;28;20039;-78
2022/12/07 09:26:15;;;;;;;6.80;4.65;;;;;;;4.89;100.00;101580.44;5311033;28;20028;-75
2022/12/07 09:28:52;;;;;;;8.98;4.40;;;;;;;4.85;100.00;101576.47;5314219;28;20028;-75
2022/12/07 09:31:23;;;;;;;6.90;4.30;;;;;;;4.73;100.00;101580.03;5306193;28;20096;-75
2022/12/07 09:33:59;;;;;;;7.47;5.20;;;;;;;4.84;100.00;101583.03;5305723;28;20111;-74
2022/12/07 09:36:33;;;;;;;13.13;5.55;;;;;;;4.82;100.00;101579.69;5305905;28;20040;-76
2022/12/07 09:39:05;;;;;;;8.18;4.38;;;;;;;4.75;100.00;101586.09;5319558;28;20093;-77
2022/12/07 09:41:42;;;;;;;7.03;5.00;;;;;;;4.74;100.00;101587.19;5304607;28;20060;-75
2022/12/07 09:44:23;;;;;;;9.40;5.07;;;;;;;4.72;100.00;101597.56;5310190;28;20020;-75
2022/12/07 09:46:56;;;;;;;6.28;4.80;;;;;;;4.61;100.00;101584.63;5305124;28;20530;-76
2022/12/07 09:49:30;;;;;;;6.13;4.35;;;;;;;4.65;100.00;101580.31;5304926;28;20038;-75
2022/12/07 09:52:08;;;;;;;6.65;4.75;;;;;;;4.75;100.00;101583.34;5320898;28;20031;-74
2022/12/07 09:54:45;;;;;;;8.75;5.38;;;;;;;4.72;100.00;101581.06;5322609;28;20032;-80
2022/12/07 09:57:20;;;;;;;8.07;5.45;;;;;;;4.83;100.00;101582.19;5308114;28;20016;-73
2022/12/07 10:00:07;;;;;;;8.50;5.40;;;;;;;4.99;100.00;101586.19;5305066;28;20039;-73
2022/12/07 10:02:45;;;;;;;8.60;4.60;;;;;;;5.09;100.00;101582.84;5305474;28;20023;-74
2022/12/07 10:05:24;;;;;;;7.75;4.53;;;;;;;5.10;100.00;101581.81;5324617;28;20027;-74
2022/12/07 10:07:56;;;;;;;6.78;4.63;;;;;;;5.18;100.00;101579.53;5326077;28;20028;-71
2022/12/07 10:10:32;;;;;;;8.15;4.40;;;;;;;5.13;100.00;101573.06;5325043;28;20064;-75
2022/12/07 10:13:08;;;;;;;7.88;4.40;;;;;;;5.09;100.00;101569.97;5320736;28;20027;-75
2022/12/07 10:15:42;;;;;;;5.50;4.13;;;;;;;5.08;100.00;101560.03;5304361;28;20453;-75
2022/12/07 10:18:45;;;;;;;6.50;4.38;;;;;;;5.11;100.00;101565.06;5317216;28;20126;-74
2022/12/07 10:21:25;;;;;;;10.13;4.88;;;;;;;5.17;100.00;101561.38;5326243;28;20024;-74
2022/12/07 10:24:18;;;;;;;11.43;5.80;;;;;;;5.35;100.00;101560.44;5306285;28;20043;-74
2022/12/07 10:26:53;;;;;;;8.60;5.47;;;;;;;5.48;100.00;101553.88;5326120;28;20027;-73
2022/12/07 10:29:38;;;;;;;6.35;4.60;;;;;;;5.50;100.00;101551.72;5326285;28;20034;-74
2022/12/07 10:32:15;;;;;;;12.18;4.88;;;;;;;5.48;100.00;101551.13;5315906;28;20059;-74
2022/12/07 10:34:46;;;;;;;7.40;4.10;;;;;;;5.39;100.00;101544.28;5316931;28;20109;-74
2022/12/07 10:37:27;;;;;;;9.65;4.70;;;;;;;5.34;100.00;101546.91;5311599;28;20482;-73
2022/12/07 10:39:58;;;;;;;9.70;5.15;;;;;;;5.41;100.00;101536.66;5321339;28;20458;-74
2022/12/07 10:42:31;;;;;;;9.07;5.20;;;;;;;5.35;100.00;101541.19;5309108;28;20035;-74
2022/12/07 10:45:18;;;;;;;9.27;4.78;;;;;;;5.47;100.00;101540.34;5302983;28;20115;-75
2022/12/07 10:48:07;;;;;;;9.77;4.32;;;;;;;5.61;100.00;101537.13;5305708;28;20471;-75
2022/12/07 10:50:47;;;;;;;6.72;4.82;;;;;;;5.58;100.00;101532.09;5307718;28;20354;-74
2022/12/07 10:53:37;;;;;;;6.80;4.32;;;;;;;5.66;100.00;101533.66;5303646;28;20115;-74
2022/12/07 10:56:36;;;;;;;7.65;3.95;;;;;;;5.75;100.00;101531.38;5305822;28;20028;-74
2022/12/07 10:59:35;;;;;;;8.32;5.00;;;;;;;5.85;100.00;101523.34;5326991;28;20077;-73
2022/12/07 11:02:35;;;;;;;8.20;4.15;;;;;;;5.92;100.00;101517.72;5329085;28;20042;-77
2022/12/07 11:05:22;;;;;;;7.55;3.47;;;;;;;5.92;100.00;101514.97;5327569;28;20048;-75
2022/12/07 11:08:22;;;;;;;8.25;3.67;;;;;;;5.95;100.00;101509.81;5326323;28;20459;-76
2022/12/07 11:11:30;;;;;;;9.18;3.92;;;;;;;5.98;100.00;101509.38;5295007;28;20057;-74
2022/12/07 11:14:20;;;;;;;10.85;4.32;;;;;;;6.01;100.00;101508.03;5321390;28;20031;-76
2022/12/07 11:16:59;;;;;;;8.10;4.25;;;;;;;5.87;98.68;101504.66;5333923;28;20028;-74
2022/12/07 11:19:45;;;;;;;5.72;3.70;;;;;;;5.91;99.78;101502.28;5322666;28;20058;-76
2022/12/07 11:22:22;;;;;;;6.25;3.75;;;;;;;6.04;100.00;101502.88;5333740;28;20087;-75
2022/12/07 11:25:14;;;;;;;6.20;4.05;;;;;;;6.03;99.86;101498.47;5345059;28;20095;-76
2022/12/07 11:28:23;;;;;;;11.13;3.88;;;;;;;6.10;99.64;101496.38;5329357;28;20042;-75
2022/12/07 11:31:26;;;;;;;10.00;3.90;;;;;;;6.17;99.93;101489.91;5312023;28;20055;-75
2022/12/07 11:34:05;;;;;;;9.65;4.13;;;;;;;6.20;99.17;101490.25;5327235;28;20028;-74
2022/12/07 11:36:48;;;;;;;5.93;3.42;;;;;;;6.18;98.84;101481.38;5325148;28;20033;-74
2022/12/07 11:39:29;;;;;;;7.35;3.70;;;;;;;6.12;99.50;101478.78;5325086;28;20034;-73
2022/12/07 11:42:19;;;;;;;7.68;4.75;;;;;;;6.13;100.00;101478.53;5328118;28;20035;-74
2022/12/07 11:44:51;;;;;;;5.97;3.10;;;;;;;6.46;100.00;101477.78;5331294;28;20012;-72
2022/12/07 11:47:27;;;;;;;6.95;3.28;;;;;;;6.42;100.00;101482.16;5333907;28;20036;-74
2022/12/07 11:50:14;;;;;;;;;;;;;;;6.29;97.81;101487.97;5334766;28;20032;-73
2022/12/07 11:52:51;;;;;;;;;;;;;;;6.20;98.61;101486.66;5330226;28;19966;-72
2022/12/07 11:55:38;;;;;;;8.25;3.03;;;;;;;6.10;99.12;101484.53;5347248;28;19916;-74
2022/12/07 11:58:19;;;;;;;8.52;3.30;;;;;;;6.09;99.54;101480.13;5345662;28;20129;-72
2022/12/07 12:00:53;;;;;;;6.93;3.60;;;;;;;6.05;99.45;101473.41;5330067;28;20068;-72
2022/12/07 12:03:32;;;;;;;8.82;4.45;;;;;;;5.94;100.00;101469.63;5322786;28;20027;-74
2022/12/07 12:06:04;;;;;;;8.43;3.47;;;;;;;5.99;100.00;101461.47;5330046;28;20076;-76
2022/12/07 12:09:11;;;;;;;33.22;25.55;;;;;;;6.04;100.00;101464.31;5328866;28;20034;-75
2022/12/07 12:12:02;;;;;;;5.35;2.72;;;;;;;5.95;99.20;101448.41;5331958;28;20027;-75
2022/12/07 12:14:46;;;;;;;5.35;2.25;;;;;;;5.99;100.00;101461.47;5345854;28;20055;-73
2022/12/07 12:17:38;;;;;;;4.60;2.60;;;;;;;5.88;99.60;101456.81;5333263;28;20024;-74
2022/12/07 12:20:28;;;;;;;8.00;3.60;;;;;;;6.01;100.00;101456.56;5326409;28;20047;-75
2022/12/07 12:23:17;;;;;;;5.93;2.40;;;;;;;6.07;100.00;101451.97;5320999;28;20031;-72
2022/12/07 12:25:59;;;;;;;6.95;3.05;;;;;;;6.23;99.47;101444.84;5328182;28;20073;-74
2022/12/07 12:28:40;;;;;;;9.25;4.20;;;;;;;6.28;98.04;101440.25;5328019;28;20470;-74
2022/12/07 12:31:20;;;;;;;5.45;3.40;;;;;;;6.43;97.66;101433.38;5321077;28;20027;-73
2022/12/07 12:33:55;;;;;;;6.80;3.25;;;;;;;6.43;97.14;101428.69;5321974;28;20336;-73
2022/12/07 12:36:42;;;;;;;24.20;16.45;;;;;;;6.55;96.27;101423.13;5310366;28;20024;-72
2022/12/07 12:39:18;;;;;;;7.28;2.65;;;;;;;6.48;95.04;101425.22;5329999;28;20458;-74
2022/12/07 12:44:21;;;;;;;8.73;3.80;;;;;;;6.51;95.16;101416.44;5327113;28;20023;-76
2022/12/07 12:46:57;;;;;;;8.30;4.18;;;;;;;6.51;94.97;101422.78;5326343;28;20035;-73
2022/12/07 12:49:28;;;;;;;7.68;2.42;;;;;;;6.49;94.88;101419.47;5328411;28;20028;-77
2022/12/07 12:52:21;;;;;;;5.03;2.38;;;;;;;6.52;95.20;101418.13;5307497;28;20024;-78
2022/12/07 12:55:14;;;;;;;9.13;4.45;;;;;;;6.63;95.05;101408.09;5306229;28;20034;-76
2022/12/07 12:57:45;;;;;;;10.48;2.90;;;;;;;6.53;93.87;101412.34;5322106;28;20122;-73
2022/12/07 13:00:20;;;;;;;5.20;2.10;;;;;;;6.44;93.98;101402.84;5327427;28;20094;-79
2022/12/07 13:02:54;;;;;;;7.25;2.17;;;;;;;6.47;93.76;101399.56;5326102;28;20035;-72
2022/12/07 13:05:28;;;;;;;5.15;2.10;;;;;;;6.55;94.68;101400.25;5327306;28;20040;-73
2022/12/07 13:08:21;;;;;;;6.23;2.07;;;;;;;6.59;93.79;101393.16;5313106;28;20482;-73
2022/12/07 13:10:52;;;;;;;3.95;2.90;;;;;;;6.49;94.78;101394.66;5325784;28;20028;-73
2022/12/07 13:13:24;;;;;;;13.10;5.90;;;;;;;6.59;95.42;101393.97;5326808;28;20098;-71
2022/12/07 13:16:15;;;;;;;3.67;2.50;;;;;;;6.64;94.89;101388.53;5327793;28;20033;-75
2022/12/07 13:18:49;;;;;;;3.45;2.20;;;;;;;6.56;94.48;101388.13;5326115;28;20051;-73
2022/12/07 13:21:26;;;;;;;4.97;2.22;;;;;;;6.50;95.27;101384.47;5311944;28;20044;-72
2022/12/07 13:24:03;;;;;;;6.53;2.30;;;;;;;6.44;95.52;101388.19;5307589;28;20398;-71
2022/12/07 13:26:42;;;;;;;7.60;4.47;;;;;;;6.49;95.51;101383.63;5326277;28;20462;-72
2022/12/07 13:29:20;;;;;;;9.95;2.53;;;;;;;6.52;95.97;101388.63;5319528;28;20031;-73
2022/12/07 13:31:54;;;;;;;20.30;11.82;;;;;;;6.53;95.84;101373.75;5309328;28;20035;-73
2022/12/07 13:34:35;;;;;;;5.55;2.63;;;;;;;6.58;96.38;101374.94;5304888;28;20020;-73
2022/12/07 13:37:29;;;;;;;5.43;2.80;;;;;;;6.75;96.85;101381.31;5313201;28;20028;-74
2022/12/07 13:40:18;;;;;;;7.80;2.60;;;;;;;6.95;96.08;101372.50;5326225;28;20482;-72
2022/12/07 13:43:01;;;;;;;7.55;2.92;;;;;;;7.01;94.95;101365.97;5308469;28;20031;-73
2022/12/07 13:45:48;;;;;;;4.57;2.60;;;;;;;6.89;94.32;101368.81;5305422;28;20035;-72
2022/12/07 13:48:33;;;;;;;3.53;2.50;;;;;;;6.90;94.75;101369.66;5305036;28;20023;-75
2022/12/07 13:51:04;;;;;;;3.63;2.22;;;;;;;6.84;93.85;101363.22;5306837;28;20039;-75
2022/12/07 13:53:46;;;;;;;5.60;2.30;;;;;;;6.89;94.38;101355.03;5307145;28;20035;-74
2022/12/07 13:56:20;;;;;;;5.70;2.53;;;;;;;6.75;93.04;101349.06;5322677;28;20027;-73
2022/12/07 13:58:51;;;;;;;4.18;1.90;;;;;;;6.72;92.93;101362.47;5324631;28;20039;-75
2022/12/07 14:01:24;;;;;;;4.15;2.17;;;;;;;6.61;93.15;101355.16;5324175;28;20020;-75
2022/12/07 14:04:16;;;;;;;5.60;3.05;;;;;;;6.64;93.57;101357.41;5326848;28;20024;-75
2022/12/07 14:06:49;;;;;;;4.90;2.58;;;;;;;6.46;94.50;101356.56;5305198;28;20063;-71
2022/12/07 14:09:26;;;;;;;3.90;2.85;;;;;;;6.58;95.25;101355.66;5304115;28;20024;-74
2022/12/07 14:11:58;;;;;;;6.20;2.40;;;;;;;6.63;95.81;101350.22;5311065;28;20120;-75
2022/12/07 14:14:31;;;;;;;4.68;2.25;;;;;;;6.61;94.92;101346.88;5307232;28;20020;-75
2022/12/07 14:17:17;;;;;;;7.03;2.20;;;;;;;6.55;95.04;101343.22;5311161;28;20035;-76
2022/12/07 14:19:54;;;;;;;4.85;2.65;;;;;;;6.52;95.42;101343.72;5304609;28;20032;-75
2022/12/07 14:22:37;;;;;;;4.45;2.30;;;;;;;6.47;96.22;101330.69;5305085;28;20028;-75
2022/12/07 14:25:26;;;;;;;4.95;1.90;;;;;;;6.47;96.64;101332.63;5325682;28;20039;-75
2022/12/07 14:28:00;;;;;;;3.53;2.00;;;;;;;6.46;98.04;101331.75;5318734;28;20150;-74
2022/12/07 14:30:33;;;;;;;2.88;2.00;;;;;;;6.40;98.57;101335.53;5303736;28;20061;-75
2022/12/07 14:33:05;;;;;;;30.70;19.80;;;;;;;6.42;98.50;101329.78;5312588;28;20103;-76
2022/12/07 14:35:37;;;;;;;6.47;3.83;;;;;;;6.39;98.88;101324.75;5304277;28;20430;-75
2022/12/07 14:38:08;;;;;;;6.25;3.35;;;;;;;6.32;98.62;101324.91;5310775;28;20019;-73
2022/12/07 14:40:39;;;;;;;3.95;3.40;;;;;;;6.35;98.88;101321.66;5325604;28;20044;-73
2022/12/07 14:43:14;;;;;;;3.85;2.30;;;;;;;6.31;98.14;101320.47;5315187;28;20020;-75
2022/12/07 14:45:48;;;;;;;6.90;2.43;;;;;;;6.30;98.47;101325.16;5313079;28;20504;-75
2022/12/07 14:48:24;;;;;;;3.67;2.63;;;;;;;6.24;98.41;101319.84;5325383;28;20273;-76
2022/12/07 14:50:56;;;;;;;5.45;2.35;;;;;;;6.17;98.67;101319.16;5306369;28;20027;-77
2022/12/07 14:53:34;;;;;;;4.93;3.10;;;;;;;6.19;98.59;101323.31;5305079;28;20099;-76
2022/12/07 14:56:06;;;;;;;4.20;2.80;;;;;;;6.27;99.16;101316.56;5315495;28;20012;-77
2022/12/07 14:58:37;;;;;;;5.22;2.85;;;;;;;6.21;99.18;101320.31;5324913;28;20027;-74
2022/12/07 15:01:09;;;;;;;3.65;2.60;;;;;;;6.31;98.59;101320.47;5309716;28;20027;-79
2022/12/07 15:03:40;;;;;;;4.38;2.67;;;;;;;6.24;98.39;101317.91;5324883;28;20466;-78
2022/12/07 15:06:15;;;;;;;5.45;3.70;;;;;;;6.20;98.54;101319.47;5323687;28;20075;-80
2022/12/07 15:08:46;;;;;;;5.18;3.33;;;;;;;6.23;98.64;101316.22;5324277;28;20023;-80
2022/12/07 15:11:18;;;;;;;7.97;4.00;;;;;;;6.17;98.81;101308.13;5316500;28;20042;-81
2022/12/07 15:14:08;;;;;;;6.53;4.18;;;;;;;6.29;99.29;101306.16;5303545;28;20020;-79
2022/12/07 15:16:41;;;;;;;7.88;5.22;;;;;;;6.21;98.50;101301.03;5304003;28;20027;-79
2022/12/07 15:19:19;;;;;;;6.88;4.30;;;;;;;6.23;98.56;101309.88;5310123;28;20099;-80
2022/12/07 15:21:50;;;;;;;5.70;4.35;;;;;;;6.15;97.83;101300.09;5310913;28;20032;-79
2022/12/07 15:24:23;;;;;;;7.82;4.72;;;;;;;6.15;97.85;101304.78;5307518;28;20039;-79
2022/12/07 15:26:55;;;;;;;7.70;4.47;;;;;;;6.13;98.41;101313.28;5304367;28;20028;-73
2022/12/07 15:29:26;;;;;;;6.07;2.30;;;;;;;6.00;98.30;101308.94;5308270;28;20020;-77
2022/12/07 15:31:58;;;;;;;7.47;3.80;;;;;;;6.06;98.56;101307.13;5316333;28;20020;-75
2022/12/07 15:34:31;;;;;;;5.00;2.78;;;;;;;6.06;98.21;101307.97;5315761;28;20031;-76
2022/12/07 15:37:02;;;;;;;3.80;2.30;;;;;;;5.95;96.88;101302.50;5311564;28;20027;-75
2022/12/07 15:39:36;;;;;;;9.30;3.67;;;;;;;5.96;96.94;101302.28;5330405;28;20112;-75
2022/12/07 15:42:07;;;;;;;17.05;12.10;;;;;;;5.94;98.00;101304.44;5322446;28;20047;-75
2022/12/07 15:47:37;;;;;;;5.47;3.90;;;;;;;5.96;97.68;101302.28;5327965;28;20024;-70
2022/12/07 15:50:12;;;;;;;3.63;3.22;;;;;;;5.89;97.66;101301.56;5328529;28;20034;-70
2022/12/07 15:52:43;;;;;;;5.63;3.63;;;;;;;5.88;98.57;101297.13;5317764;28;20367;-69
2022/12/07 15:55:14;;;;;;;5.18;3.40;;;;;;;5.85;98.28;101290.22;5316067;28;20046;-71
2022/12/07 15:57:46;;;;;;;5.57;3.60;;;;;;;5.78;98.79;101288.69;5319610;28;20382;-71
2022/12/07 16:00:18;;;;;;;4.85;3.10;;;;;;;5.78;98.70;101288.69;5318657;28;20609;-70
2022/12/07 16:02:49;;;;;;;5.18;3.47;;;;;;;5.95;99.87;101286.81;5306110;28;20111;-71
2022/12/07 16:05:20;;;;;;;5.18;3.15;;;;;;;5.86;98.80;101285.53;5308179;28;20048;-71
2022/12/07 16:07:52;;;;;;;7.22;4.05;;;;;;;5.83;99.02;101280.53;5328501;28;20398;-71
2022/12/07 16:10:23;;;;;;;5.32;3.25;;;;;;;5.83;99.13;101286.03;5319364;28;20052;-71
2022/12/07 16:12:54;;;;;;;3.80;3.30;;;;;;;5.80;98.87;101281.00;5307472;28;20047;-71
2022/12/07 16:15:26;;;;;;;4.28;3.05;;;;;;;5.78;98.77;101277.69;5317780;28;20024;-76
2022/12/07 16:17:58;;;;;;;5.75;3.92;;;;;;;5.86;99.02;101278.09;5306782;28;20091;-76
2022/12/07 16:20:29;;;;;;;6.93;4.63;;;;;;;5.74;98.20;101271.00;5307152;28;20427;-75
2022/12/07 16:23:00;;;;;;;86.88;75.25;;;;;;;5.59;97.77;101268.78;5326348;28;20020;-75
2022/12/07 16:25:31;;;;;;;3.92;2.95;;;;;;;5.60;98.51;101275.97;5321541;28;20035;-74
2022/12/07 16:28:03;;;;;;;5.93;4.25;;;;;;;5.74;99.64;101268.25;5320581;28;20024;-74
2022/12/07 16:30:34;;;;;;;5.80;4.20;;;;;;;5.78;99.08;101272.19;5327700;28;20308;-75
2022/12/07 16:33:05;;;;;;;4.05;3.15;;;;;;;5.71;98.52;101274.25;5306845;28;20028;-75
2022/12/07 16:35:40;;;;;;;4.63;2.80;;;;;;;5.65;98.76;101263.13;5322107;28;20095;-75
